Data for 11/30/2007

Time Sea-Level Adjusted Pressure Absolute Pressure Temperature Relative Humidity Dew Point   
(mb) (inHg) (mb) (inHg) (C) (F) (%) (C) (F)
00:05 1022 30.18 851 25.13 -10.9 12.3 80 -13.7 7.4
00:10 1022 30.18 851 25.13 -11 12.3 79 -14 6.8
00:15 1022 30.18 851 25.13 -11.4 11.5 81 -14 6.8
00:20 1022 30.18 851 25.13 -11.5 11.3 81 -14.2 6.5
00:25 1022 30.18 851 25.13 -11.6 11.1 82 -14.1 6.5
00:30 1022 30.18 851 25.13 -11.6 11.1 81 -14.2 6.4
00:35 1022 30.18 851 25.13 -11.7 10.9 82 -14.1 6.6
00:40 1022 30.18 851 25.13 -11.6 11 81 -14.2 6.4
00:45 1022 30.18 851 25.13 -11.7 11 82 -14.2 6.5
00:50 1022 30.18 851 25.13 -11.7 10.9 82 -14.2 6.5
00:55 1022 30.18 851 25.13 -11.8 10.8 82 -14.2 6.4
01:00 1022 30.18 851 25.13 -11.7 10.9 82 -14.3 6.3
01:05 1022 30.18 851 25.13 -11.7 10.9 82 -14.3 6.3
01:10 1022 30.18 851 25.13 -11.6 11.1 81 -14.2 6.4
01:15 1021 30.15 851 25.13 -11.5 11.2 81 -14.2 6.4
01:20 1021 30.15 851 25.13 -11.6 11.2 81 -14.2 6.5
01:25 1021 30.15 851 25.13 -11.7 10.9 82 -14.2 6.4
01:30 1021 30.15 851 25.13 -11.9 10.6 83 -14.3 6.3
01:35 1021 30.15 851 25.13 -11.9 10.7 82 -14.4 6.1
01:40 1021 30.15 851 25.13 -11.9 10.5 82 -14.3 6.2
01:45 1021 30.15 851 25.13 -12.1 10.2 83 -14.4 6.1
01:50 1021 30.15 850 25.1 -12.1 10.2 83 -14.5 5.9
01:55 1021 30.15 850 25.1 -12 10.3 83 -14.4 6
02:00 1021 30.15 850 25.1 -12 10.5 83 -14.3 6.2
02:05 1021 30.15 850 25.1 -12 10.4 83 -14.3 6.2
02:10 1021 30.15 850 25.1 -12.1 10.2 83 -14.4 6
02:15 1021 30.15 851 25.13 -12.2 10 83 -14.5 5.9
02:20 1021 30.15 851 25.13 -12.3 9.9 83 -14.6 5.8
02:25 1021 30.15 851 25.13 -12.5 9.6 85 -14.5 5.8
02:30 1021 30.15 850 25.1 -12.6 9.4 85 -14.6 5.8
02:35 1021 30.15 851 25.13 -12.6 9.3 84 -14.8 5.4
02:40 1021 30.15 850 25.1 -12.9 8.7 87 -14.7 5.5
02:45 1021 30.15 850 25.1 -13.5 7.7 89 -14.9 5.2
02:50 1021 30.15 850 25.1 -13.7 7.3 88 -15.3 4.5
02:55 1021 30.15 850 25.1 -14 6.9 88 -15.5 4.1
03:00 1021 30.15 850 25.1 -14.2 6.4 88 -15.8 3.6
03:05 1021 30.15 850 25.1 -14.5 5.9 88 -16.1 3.1
03:10 1021 30.15 850 25.1 -14.8 5.3 90 -16.2 2.9
03:15 1021 30.15 850 25.1 -14.7 5.5 89 -16.1 3
03:20 1021 30.15 850 25.1 -14.7 5.6 89 -16.1 3
03:25 1021 30.15 850 25.1 -14.6 5.7 89 -16.1 3.1
03:30 1021 30.15 850 25.1 -14.6 5.7 88 -16.2 2.9
03:35 1021 30.15 850 25.1 -14.7 5.6 89 -16.1 2.9
03:40 1021 30.15 850 25.1 -14.7 5.5 87 -16.5 2.3
03:45 1021 30.15 850 25.1 -14.8 5.4 87 -16.5 2.3
03:50 1021 30.15 850 25.1 -15 5.1 87 -16.7 1.9
03:55 1021 30.15 850 25.1 -15.1 4.8 86 -17 1.4
04:00 1020 30.12 850 25.1 -15.3 4.4 85 -17.3 0.9
04:05 1020 30.12 849 25.07 -15.4 4.2 84 -17.6 0.4
04:10 1020 30.12 849 25.07 -15.4 4.4 84 -17.4 0.6
04:15 1020 30.12 849 25.07 -15.3 4.4 83 -17.6 0.3
04:20 1020 30.12 849 25.07 -15.3 4.5 82 -17.7 0.2
04:25 1020 30.12 849 25.07 -15.5 4.2 82 -17.9 -0.1
04:30 1020 30.12 849 25.07 -15.6 4 83 -17.9 -0.2
04:35 1020 30.12 849 25.07 -15.7 3.8 83 -17.9 -0.3
04:40 1020 30.12 849 25.07 -15.7 3.7 83 -17.9 -0.3
04:45 1020 30.12 849 25.07 -15.7 3.7 82 -18.1 -0.5
04:50 1020 30.12 849 25.07 -15.9 3.4 83 -18.1 -0.6
04:55 1020 30.12 849 25.07 -16.1 3.1 84 -18.2 -0.7
05:00 1020 30.12 849 25.07 -16.1 3.1 84 -18.2 -0.7
05:05 1020 30.12 849 25.07 -16.1 3.1 85 -18.1 -0.6
05:10 1020 30.12 849 25.07 -16 3.1 86 -17.9 -0.2
05:15 1020 30.12 849 25.07 -16 3.3 87 -17.7 0.2
05:20 1020 30.12 849 25.07 -15.7 3.7 85 -17.7 0.1
05:25 1019 30.09 849 25.07 -15.6 3.9 83 -17.8 -0.1
05:30 1019 30.09 849 25.07 -15.7 3.8 83 -17.9 -0.3
05:35 1019 30.09 849 25.07 -15.8 3.7 85 -17.8 -0
05:40 1019 30.09 849 25.07 -15.6 4 87 -17.3 0.9
05:45 1019 30.09 848 25.04 -15.2 4.7 83 -17.4 0.7
05:50 1019 30.09 848 25.04 -15 5.1 82 -17.3 0.8
05:55 1019 30.09 848 25.04 -15 5 81 -17.6 0.2
06:00 1019 30.09 848 25.04 -15.4 4.3 82 -17.9 -0.2
06:05 1019 30.09 848 25.04 -15.8 3.6 81 -18.3 -1
06:10 1019 30.09 848 25.04 -16 3.1 82 -18.5 -1.3
06:15 1019 30.09 848 25.04 -16.2 2.8 83 -18.5 -1.2
06:20 1019 30.09 848 25.04 -16 3.2 83 -18.3 -0.9
06:25 1019 30.09 848 25.04 -15.7 3.7 83 -18 -0.3
06:30 1019 30.09 848 25.04 -15.6 4 82 -17.9 -0.3
06:35 1019 30.09 848 25.04 -15.6 3.9 83 -17.9 -0.3
06:40 1019 30.09 848 25.04 -15.7 3.8 83 -18 -0.3
06:45 1019 30.09 848 25.04 -15.5 4.1 82 -17.9 -0.2
06:50 1019 30.09 848 25.04 -15.5 4.2 82 -17.9 -0.2
06:55 1019 30.09 848 25.04 -15.5 4 82 -17.9 -0.2
07:00 1019 30.09 848 25.04 -15.6 3.9 79 -18.5 -1.2
07:05 1019 30.09 848 25.04 -15.8 3.6 81 -18.4 -1.1
07:10 1018 30.06 848 25.04 -16.1 3 80 -18.8 -1.9
07:15 1018 30.06 848 25.04 -16.4 2.6 81 -18.9 -2
07:20 1018 30.06 847 25.01 -16.4 2.4 82 -18.9 -2
07:25 1018 30.06 847 25.01 -16.5 2.3 83 -18.8 -1.9
07:30 1018 30.06 847 25.01 -16.5 2.3 82 -18.9 -1.9
07:35 1018 30.06 847 25.01 -16.4 2.4 82 -18.8 -1.8
07:40 1018 30.06 847 25.01 -16.1 3 82 -18.5 -1.3
07:45 1018 30.06 847 25.01 -15.8 3.6 80 -18.5 -1.3
07:50 1018 30.06 847 25.01 -15.8 3.5 82 -18.3 -0.9
07:55 1018 30.06 847 25.01 -15.9 3.4 81 -18.4 -1.1
08:00 1018 30.06 847 25.01 -16.1 3 83 -18.4 -1
08:05 1018 30.06 847 25.01 -16.1 3 82 -18.5 -1.3
08:10 1018 30.06 847 25.01 -16 3.2 81 -18.6 -1.5
08:15 1018 30.06 847 25.01 -16.1 3.1 80 -18.8 -1.9
08:20 1018 30.06 847 25.01 -16.1 3.1 80 -18.8 -1.9
08:25 1018 30.06 847 25.01 -15.8 3.6 81 -18.3 -0.9
08:30 1018 30.06 847 25.01 -15.2 4.7 79 -18.1 -0.6
08:35 1018 30.06 847 25.01 -14.9 5.1 78 -18 -0.4
08:40 1018 30.06 847 25.01 -14.7 5.6 77 -17.8 -0.1
08:45 1018 30.06 847 25.01 -14.4 6.2 75 -17.8 -0.1
08:50 1018 30.06 847 25.01 -14.1 6.6 75 -17.6 0.3
08:55 1018 30.06 847 25.01 -13.9 7 74 -17.6 0.3
09:00 1017 30.03 847 25.01 -13.8 7.3 73 -17.6 0.4
09:05 1017 30.03 847 25.01 -14.1 6.5 76 -17.5 0.6
09:10 1017 30.03 847 25.01 -14.2 6.5 76 -17.6 0.4
09:15 1017 30.03 846 24.98 -13.8 7.1 75 -17.4 0.6
09:20 1017 30.03 846 24.98 -13.4 7.9 73 -17.3 0.9
09:25 1017 30.03 846 24.98 -12.8 9 70 -17.2 1
09:30 1017 30.03 846 24.98 -13.1 8.4 69 -17.7 0.2
09:35 1017 30.03 846 24.98 -13.8 7.3 71 -17.9 -0.3
09:40 1017 30.03 846 24.98 -13.5 7.6 70 -17.8 -0.1
09:45 1017 30.03 846 24.98 -12.9 8.8 69 -17.5 0.6
09:50 1017 30.03 846 24.98 -12.3 9.8 68 -17 1.3
09:55 1017 30.03 846 24.98 -11.5 11.3 66 -16.7 1.9
10:00 1017 30.03 846 24.98 -11 12.2 64 -16.5 2.3
10:05 1017 30.03 846 24.98 -10.6 13 63 -16.4 2.5
10:10 1017 30.03 846 24.98 -9.9 14.3 60 -16.3 2.7
10:15 1017 30.03 846 24.98 -9.8 14.3 62 -15.9 3.4
10:20 1017 30.03 846 24.98 -10 14 63 -15.7 3.7
10:25 1017 30.03 846 24.98 -9.9 14.3 62 -15.9 3.3
10:30 1017 30.03 846 24.98 -10.1 13.9 62 -16.1 3.1
10:35 1017 30.03 846 24.98 -10.2 13.6 62 -16.2 2.8
10:40 1017 30.03 846 24.98 -10.6 12.9 62 -16.5 2.3
10:45 1016 30 846 24.98 -10.8 12.6 64 -16.4 2.5
10:50 1016 30 846 24.98 -10.8 12.6 64 -16.2 2.8
10:55 1016 30 845 24.95 -11 12.3 64 -16.6 2.2
11:00 1016 30 845 24.95 -10.8 12.7 63 -16.5 2.3
11:05 1016 30 845 24.95 -11.2 11.9 66 -16.4 2.5
11:10 1016 30 845 24.95 -11.5 11.4 70 -16 3.2
11:15 1016 30 845 24.95 -11.9 10.7 71 -16.2 2.9
11:20 1016 30 845 24.95 -11.5 11.4 66 -16.5 2.3
11:25 1016 30 845 24.95 -11 12.2 67 -16.1 3.1
11:30 1016 30 845 24.95 -10.7 12.7 65 -16 3.2
11:35 1015 29.97 845 24.95 -11 12.2 66 -16.2 2.9
11:40 1015 29.97 844 24.92 -11.3 11.7 68 -16.1 3
11:45 1015 29.97 844 24.92 -11 12.2 67 -16 3.2
11:50 1015 29.97 844 24.92 -11.1 12 67 -16.2 2.9
11:55 1015 29.97 844 24.92 -11.2 11.8 68 -16.1 3
12:00 1015 29.97 844 24.92 -11.2 11.8 67 -16.3 2.7
12:05 1015 29.97 844 24.92 -11.3 11.6 68 -16.1 3
12:10 1015 29.97 844 24.92 -11.3 11.7 67 -16.2 2.8
12:15 1015 29.97 844 24.92 -11.4 11.4 67 -16.4 2.5
12:20 1015 29.97 844 24.92 -11 12.2 66 -16.1 3
12:25 1015 29.97 844 24.92 -10.4 13.3 64 -16 3.3
12:30 1015 29.97 844 24.92 -9.9 14.1 63 -15.7 3.8
12:35 1014 29.94 844 24.92 -9.8 14.4 61 -15.9 3.3
12:40 1014 29.94 844 24.92 -9.8 14.4 62 -15.8 3.5
12:45 1014 29.94 844 24.92 -10.2 13.7 63 -16 3.3
12:50 1014 29.94 843 24.89 -10.7 12.7 65 -16.1 3
12:55 1014 29.94 843 24.89 -10.7 12.7 65 -16 3.2
13:00 1014 29.94 843 24.89 -10.6 12.9 64 -16.1 3
13:05 1014 29.94 843 24.89 -10.6 12.9 66 -15.8 3.6
13:10 1014 29.94 843 24.89 -10.6 13 64 -16.1 3.1
13:15 1013 29.91 843 24.89 -10.8 12.6 66 -15.9 3.3
13:20 1013 29.91 843 24.89 -11 12.1 67 -15.9 3.3
13:25 1013 29.91 842 24.86 -11.1 12 67 -16.1 3
13:30 1013 29.91 842 24.86 -11.3 11.7 67 -16.3 2.7
13:35 1013 29.91 842 24.86 -11.4 11.4 68 -16.2 2.9
13:40 1013 29.91 842 24.86 -11.8 10.8 70 -16.3 2.7
13:45 1013 29.91 842 24.86 -11.7 11 69 -16.2 2.8
13:50 1013 29.91 842 24.86 -11.5 11.3 70 -15.9 3.4
13:55 1012 29.88 842 24.86 -11 12.3 68 -15.8 3.6
14:00 1012 29.88 842 24.86 -10.5 13 65 -15.9 3.5
14:05 1012 29.88 841 24.83 -10.6 13 65 -15.9 3.3
14:10 1012 29.88 841 24.83 -10.3 13.5 64 -15.8 3.5
14:15 1012 29.88 841 24.83 -10.1 13.9 64 -15.7 3.7
14:20 1012 29.88 841 24.83 -10 14.1 64 -15.6 3.9
14:25 1012 29.88 841 24.83 -10.1 13.9 64 -15.6 3.9
14:30 1012 29.88 841 24.83 -10.5 13.1 67 -15.5 4.2
14:35 1012 29.88 841 24.83 -10.4 13.2 66 -15.7 3.7
14:40 1012 29.88 841 24.83 -11 12.3 67 -15.9 3.4
14:45 1012 29.88 841 24.83 -11.3 11.6 71 -15.5 4
14:50 1012 29.88 841 24.83 -10.9 12.4 69 -15.5 4.1
14:55 1012 29.88 841 24.83 -10.6 12.9 68 -15.3 4.4
15:00 1012 29.88 841 24.83 -10.5 13.1 67 -15.6 3.9
15:05 1012 29.88 841 24.83 -10.7 12.7 68 -15.5 4.1
15:10 1012 29.88 841 24.83 -10.7 12.7 68 -15.6 3.9
15:15 1012 29.88 841 24.83 -10.8 12.6 69 -15.5 4.2
15:20 1012 29.88 841 24.83 -10.9 12.4 69 -15.5 4
15:25 1012 29.88 841 24.83 -11.1 12 70 -15.5 4.1
15:30 1012 29.88 841 24.83 -11.4 11.5 73 -15.4 4.4
15:35 1012 29.88 841 24.83 -11.5 11.3 74 -15.3 4.5
15:40 1012 29.88 841 24.83 -11.5 11.3 75 -15.1 4.7
15:45 1012 29.88 841 24.83 -11.5 11.2 77 -14.9 5.3
15:50 1012 29.88 841 24.83 -11.6 11.2 79 -14.5 5.8
15:55 1012 29.88 841 24.83 -11.7 10.9 80 -14.5 5.9
16:00 1012 29.88 841 24.83 -11.8 10.7 81 -14.4 6
16:05 1011 29.85 841 24.83 -12.1 10.3 84 -14.3 6.3
16:10 1011 29.85 841 24.83 -12.1 10.2 82 -14.5 5.9
16:15 1011 29.85 841 24.83 -12.2 10 83 -14.6 5.8
16:20 1011 29.85 841 24.83 -12.1 10.3 83 -14.4 6.1
16:25 1011 29.85 840 24.81 -12 10.4 83 -14.3 6.2
16:30 1011 29.85 840 24.81 -12.2 10.1 84 -14.4 6.1
16:35 1011 29.85 840 24.81 -12.2 10 85 -14.2 6.4
16:40 1011 29.85 840 24.81 -12.1 10.3 86 -13.9 7
16:45 1011 29.85 840 24.81 -11.9 10.7 85 -13.9 6.9
16:50 1011 29.85 840 24.81 -11.8 10.8 84 -14 6.9
16:55 1011 29.85 840 24.81 -11.7 10.9 86 -13.6 7.5
17:00 1011 29.85 840 24.81 -11.6 11.2 86 -13.5 7.7
17:05 1011 29.85 840 24.81 -11.4 11.4 85 -13.5 7.7
17:10 1011 29.85 840 24.81 -11.4 11.5 84 -13.5 7.6
17:15 1011 29.85 840 24.81 -11.5 11.4 85 -13.5 7.7
17:20 1011 29.85 840 24.81 -11.6 11.1 86 -13.5 7.8
17:25 1011 29.85 840 24.81 -11.6 11.1 86 -13.6 7.6
17:30 1011 29.85 840 24.81 -11.6 11.1 87 -13.4 7.9
17:35 1011 29.85 840 24.81 -11.6 11.2 88 -13.2 8.2
17:40 1011 29.85 840 24.81 -11.4 11.5 87 -13.2 8.3
17:45 1011 29.85 840 24.81 -11.3 11.7 87 -13.1 8.4
17:50 1011 29.85 840 24.81 -11.5 11.4 86 -13.3 8.1
17:55 1011 29.85 840 24.81 -11.5 11.3 86 -13.4 7.9
18:00 1011 29.85 840 24.81 -11.6 11.2 87 -13.3 8
18:05 1011 29.85 840 24.81 -11.6 11.2 87 -13.3 8.1
18:10 1011 29.85 840 24.81 -11.5 11.2 87 -13.2 8.2
18:15 1011 29.85 840 24.81 -11.5 11.3 87 -13.3 8.1
18:20 1011 29.85 840 24.81 -11.6 11.1 88 -13.3 8.1
18:25 1011 29.85 840 24.81 -11.6 11.2 86 -13.4 7.9
18:30 1011 29.85 840 24.81 -11.6 11.2 87 -13.3 8.1
18:35 1011 29.85 840 24.81 -11.6 11.2 88 -13.2 8.2
18:40 1011 29.85 840 24.81 -11.5 11.3 88 -13.1 8.4
18:45 1011 29.85 840 24.81 -11.4 11.4 86 -13.3 8.1
18:50 1011 29.85 840 24.81 -11.5 11.4 87 -13.2 8.2
18:55 1011 29.85 840 24.81 -11.4 11.5 86 -13.4 7.9
19:00 1011 29.85 840 24.81 -11.4 11.4 86 -13.3 8
19:05 1011 29.85 840 24.81 -11.4 11.5 87 -13.2 8.2
19:10 1011 29.85 840 24.81 -11.4 11.5 87 -13.2 8.2
19:15 1011 29.85 840 24.81 -11.6 11.2 87 -13.3 8.1
19:20 1011 29.85 840 24.81 -11.6 11.1 87 -13.4 7.9
19:25 1011 29.85 840 24.81 -11.6 11 88 -13.3 8.1
19:30 1011 29.85 840 24.81 -11.6 11.2 88 -13.2 8.2
19:35 1011 29.85 840 24.81 -11.5 11.3 87 -13.2 8.2
19:40 1011 29.85 840 24.81 -11.5 11.3 88 -13.2 8.3
19:45 1010 29.83 840 24.81 -11.5 11.3 88 -13.1 8.4
19:50 1010 29.83 840 24.81 -11.5 11.4 88 -13 8.5
19:55 1011 29.85 840 24.81 -11.4 11.4 87 -13.2 8.3
20:00 1010 29.83 840 24.81 -11.4 11.4 88 -13 8.5
20:05 1010 29.83 840 24.81 -11.4 11.5 88 -13.1 8.5
20:10 1010 29.83 840 24.81 -11.4 11.4 88 -13.1 8.4
20:15 1011 29.85 840 24.81 -11.4 11.5 88 -13 8.7
20:20 1011 29.85 840 24.81 -11.3 11.7 85 -13.3 8.1
20:25 1010 29.83 840 24.81 -11.5 11.3 87 -13.2 8.3
20:30 1010 29.83 840 24.81 -11.6 11.1 87 -13.4 8
20:35 1010 29.83 840 24.81 -11.6 11.2 89 -13.1 8.4
20:40 1010 29.83 840 24.81 -11.5 11.4 89 -13 8.6
20:45 1010 29.83 840 24.81 -11.4 11.5 88 -13 8.5
20:50 1010 29.83 840 24.81 -11.4 11.5 88 -13 8.7
20:55 1010 29.83 840 24.81 -11.3 11.7 87 -13 8.6
21:00 1010 29.83 840 24.81 -11.4 11.6 88 -13 8.6
21:05 1010 29.83 840 24.81 -11.3 11.6 87 -13 8.5
21:10 1010 29.83 839 24.78 -11.3 11.7 87 -13 8.5
21:15 1010 29.83 839 24.78 -11.2 11.8 87 -12.9 8.7
21:20 1010 29.83 839 24.78 -11.2 11.8 87 -13 8.6
21:25 1010 29.83 839 24.78 -11.4 11.5 88 -12.9 8.7
21:30 1010 29.83 839 24.78 -11.4 11.5 88 -13 8.7
21:35 1010 29.83 839 24.78 -11.5 11.3 88 -13.1 8.4
21:40 1010 29.83 839 24.78 -11.7 11 90 -13 8.6
21:45 1010 29.83 839 24.78 -11.7 10.9 90 -13 8.6
21:50 1010 29.83 839 24.78 -11.7 10.9 89 -13.1 8.4
21:55 1010 29.83 839 24.78 -11.8 10.8 90 -13.2 8.3
22:00 1010 29.83 839 24.78 -11.8 10.9 89 -13.2 8.3
22:05 1010 29.83 839 24.78 -11.8 10.7 89 -13.3 8.1
22:10 1010 29.83 839 24.78 -11.8 10.7 89 -13.2 8.2
22:15 1010 29.83 839 24.78 -11.9 10.5 90 -13.3 8
22:20 1010 29.83 839 24.78 -12 10.3 90 -13.3 8
22:25 1010 29.83 839 24.78 -12 10.4 89 -13.4 7.9
22:30 1010 29.83 839 24.78 -12 10.4 90 -13.4 7.9
22:35 1010 29.83 839 24.78 -12.1 10.2 90 -13.4 7.9
22:40 1010 29.83 839 24.78 -12 10.4 90 -13.4 7.9
22:45 1010 29.83 839 24.78 -11.9 10.6 90 -13.3 8.1
22:50 1010 29.83 839 24.78 -11.8 10.7 89 -13.3 8
22:55 1010 29.83 839 24.78 -11.8 10.7 89 -13.4 8
23:00 1010 29.83 839 24.78 -11.8 10.8 89 -13.3 8.1
23:05 1010 29.83 839 24.78 -11.8 10.8 89 -13.2 8.2
23:10 1010 29.83 839 24.78 -11.8 10.7 89 -13.3 8.1
23:15 1010 29.83 839 24.78 -11.8 10.7 89 -13.3 8.1
23:20 1010 29.83 839 24.78 -11.8 10.7 88 -13.4 7.9
23:25 1010 29.83 839 24.78 -11.9 10.6 88 -13.5 7.7
23:30 1010 29.83 839 24.78 -12 10.4 88 -13.6 7.6
23:35 1010 29.83 839 24.78 -12.1 10.2 88 -13.7 7.3
23:40 1010 29.83 839 24.78 -12.2 10 89 -13.7 7.4
23:45 1010 29.83 839 24.78 -12.3 9.9 89 -13.7 7.3
23:50 1010 29.83 839 24.78 -12.3 9.8 89 -13.8 7.2
23:55 1009 29.8 839 24.78 -12.4 9.6 89 -13.9 7.1
24:00 1009 29.8 839 24.78 -12.6 9.4 90 -13.9 6.9